Terminal Aerodrome Forecast
Issued by NWS

Home | Current Version | Previous Version | Text Only | Print | Product List | Glossary Off
Versions: 1 2 3 4 5 6 7 8 9 10 11 12 13 14 15 16 17 18 19 20 21 22 23 24 25 26 27 28 29 30 31 32 33 34 35 36 37

000
FTUS43 KLOT 172100 AAC
TAFORD
TAF AMD
KORD 172152Z 1722/1824 04010KT P6SM BKN013
      TEMPO 1723/1801 SCT013
     FM180300 03008KT 6SM BR SCT006 OVC008
     FM180800 04003KT 3SM BR SCT003 OVC005
     FM181400 06005KT P6SM SCT015 BKN020
     FM182000 09007KT P6SM SCT030=

USA.gov is the U.S. government's official web portal to all federal, state and local government web resources and services.